This is the latest recevied weather packets stored in our database for station/object KMCF. If no packets are shown the sender has not sent any weather packets the latest 10 day(s).
| Time | Temp. | Humidity | Pressure | Rain* | Wind** | Luminosity | Snow |
|---|---|---|---|---|---|---|---|
| 1777348415 | 23.89° C | 69% | 1018.6 hPa | - | - | - | - |
| 1777347815 | 23.89° C | 69% | 1018.6 hPa | - | - | - | - |
| 1777347213 | 23.89° C | 69% | 1018.6 hPa | - | - | - | - |
| 1777346614 | 23.89° C | 69% | 1018.6 hPa | - | - | - | - |
| 1777346013 | 23.89° C | 69% | 1018.6 hPa | - | - | - | - |
| 1777345415 | 25° C | 61% | 1017.9 hPa | - | - | - | - |
| 1777344817 | 25° C | 61% | 1017.9 hPa | - | - | - | - |
| 1777343617 | 25° C | 61% | 1017.9 hPa | - | - | - | - |
| 1777342414 | 25° C | 61% | 1017.9 hPa | - | - | - | - |
| 1777341815 | 25.56° C | 61% | 1016.9 hPa | - | - | - | - |
| 1777340016 | 25.56° C | 61% | 1016.9 hPa | - | - | - | - |
| 1777339534 | 25.56° C | 61% | 1016.9 hPa | - | - | - | - |
| 1777338815 | 25.56° C | 61% | 1016.9 hPa | - | - | - | - |
| 1777338213 | 27.78° C | 54% | 1015.9 hPa | - | - | - | - |
| 1777337015 | 27.78° C | 54% | 1015.9 hPa | - | - | - | - |
| 1777336415 | 27.78° C | 54% | 1015.9 hPa | - | - | - | - |
| 1777332815 | 28.89° C | 51% | 1014.9 hPa | - | - | - | - |
| 1777329816 | 31.67° C | 40% | 1014.2 hPa | - | - | - | - |
| 1777311816 | 30.56° C | 45% | 1015.6 hPa | - | - | - | - |
| 1777311216 | 30.56° C | 45% | 1015.6 hPa | - | - | - | - |
| 1777310615 | 30.56° C | 45% | 1015.6 hPa | - | - | - | - |
| 1777304015 | 27.78° C | 61% | 1015.9 hPa | - | - | - | - |
| 1777302817 | 27.78° C | 61% | 1015.9 hPa | - | - | - | - |
| 1777301613 | 25.56° C | 69% | 1015.6 hPa | - | - | - | - |
| 1777300412 | 25.56° C | 69% | 1015.6 hPa | - | - | - | - |
* Rain since midnight (hover to see other rain measurements)
** Current wind speed in m/s (hover to see current wind gust speed)